Time;durP1;ratioP1;P1;durP2;ratioP2;P2;SDS_P1;SDS_P2;PMS_P1;PMS_P2;Temp;Humidity;BMP_temperature;BMP_pressure;BME280_temperature;BME280_humidity;BME280_pressure;Samples;Min_cycle;Max_cycle;Signal;HPM_P1;HPM_P2
2022/06/10 00:02:11;;;;;;;5.00;3.28;;;;;;;;;;5073925;28;20060;-68
2022/06/10 00:04:36;;;;;;;6.95;3.20;;;;;;;;;;5074018;28;20419;-65
2022/06/10 00:07:03;;;;;;;7.38;3.30;;;;;;;;;;5073498;28;20067;-65
2022/06/10 00:09:28;;;;;;;6.30;3.47;;;;;;;;;;5072334;28;20410;-65
2022/06/10 00:11:54;;;;;;;6.28;3.13;;;;;;;;;;5073514;28;20028;-67
2022/06/10 00:14:20;;;;;;;6.22;3.05;;;;;;;;;;5073675;28;20103;-66
2022/06/10 00:16:46;;;;;;;12.13;3.38;;;;;;;;;;5073553;28;20415;-66
2022/06/10 00:19:12;;;;;;;6.40;2.90;;;;;;;;;;5073735;28;20037;-66
2022/06/10 00:21:37;;;;;;;5.93;3.50;;;;;;;;;;5073368;28;20063;-66
2022/06/10 00:24:03;;;;;;;14.60;4.60;;;;;;;;;;5073578;28;20039;-68
2022/06/10 00:26:29;;;;;;;6.18;3.60;;;;;;;;;;5073527;28;20391;-66
2022/06/10 00:28:55;;;;;;;7.28;3.25;;;;;;;;;;5073242;28;20025;-66
2022/06/10 00:31:21;;;;;;;3.90;3.03;;;;;;;;;;5082436;28;20146;-65
2022/06/10 00:33:47;;;;;;;7.18;3.58;;;;;;;;;;5093115;28;20515;-67
2022/06/10 00:36:15;;;;;;;6.93;3.65;;;;;;;;;;5093432;28;20044;-68
2022/06/10 00:38:41;;;;;;;8.93;3.80;;;;;;;;;;5093123;28;20089;-66
2022/06/10 00:41:07;;;;;;;8.20;3.58;;;;;;;;;;5093656;28;20428;-66
2022/06/10 00:43:35;;;;;;;7.03;3.70;;;;;;;;;;5093353;28;20062;-70
2022/06/10 00:46:29;;;;;;;7.35;3.42;;;;;;;;;;5094470;28;20040;-69
2022/06/10 00:49:00;;;;;;;;;;;;;;;;;;5093585;28;20103;-66
2022/06/10 00:51:35;;;;;;;7.35;3.58;;;;;;;;;;5093109;28;19955;-67
2022/06/10 00:54:32;;;;;;;6.88;3.42;;;;;;;;;;5093087;28;20378;-68
2022/06/10 00:57:03;;;;;;;7.22;3.97;;;;;;;;;;5092774;28;20035;-67
2022/06/10 00:59:36;;;;;;;7.07;4.28;;;;;;;;;;5092988;28;20055;-70
2022/06/10 01:02:14;;;;;;;9.05;4.05;;;;;;;;;;5092792;28;20039;-67
2022/06/10 01:04:41;;;;;;;5.57;4.47;;;;;;;;;;5092414;28;20058;-69
2022/06/10 01:07:08;;;;;;;8.98;4.38;;;;;;;;;;5092625;28;20020;-66
2022/06/10 01:09:35;;;;;;;6.22;4.03;;;;;;;;;;5092686;28;20111;-68
2022/06/10 01:12:24;;;;;;;7.18;4.50;;;;;;;;;;5092697;28;20024;-66
2022/06/10 01:14:56;;;;;;;7.30;4.78;;;;;;;;;;5092942;28;20030;-69
2022/06/10 01:17:39;;;;;;;5.90;4.57;;;;;;;;;;5092917;28;20120;-69
2022/06/10 01:20:05;;;;;;;;;;;;;;;;;;5092694;28;20040;-67
2022/06/10 01:22:48;;;;;;;7.07;4.45;;;;;;;;;;5092200;28;19961;-66
2022/06/10 01:25:36;;;;;;;7.63;4.10;;;;;;;;;;5092358;28;20032;-72
2022/06/10 01:28:34;;;;;;;6.60;4.47;;;;;;;;;;5092649;28;20065;-67
2022/06/10 01:31:21;;;;;;;7.60;4.22;;;;;;;;;;5091389;28;20475;-65
2022/06/10 01:34:04;;;;;;;7.32;4.65;;;;;;;;;;5092430;28;20036;-66
2022/06/10 01:36:51;;;;;;;7.88;5.32;;;;;;;;;;5091946;28;20447;-69
2022/06/10 01:39:39;;;;;;;7.13;4.72;;;;;;;;;;5092360;28;20382;-66
2022/06/10 01:42:22;;;;;;;5.90;4.38;;;;;;;;;;5091976;28;20586;-66
2022/06/10 01:45:03;;;;;;;;;;;;;;;;;;5093723;28;20478;-66
2022/06/10 01:47:47;;;;;;;8.02;4.22;;;;;;;;;;5092135;28;19923;-68
2022/06/10 01:50:27;;;;;;;7.35;4.50;;;;;;;;;;5091988;28;20432;-66
2022/06/10 01:53:04;;;;;;;7.63;4.60;;;;;;;;;;5092139;28;20035;-68
2022/06/10 01:55:33;;;;;;;7.43;4.50;;;;;;;;;;5091972;28;20043;-66
2022/06/10 01:58:03;;;;;;;5.38;4.43;;;;;;;;;;5092100;28;20031;-67
2022/06/10 02:00:32;;;;;;;5.93;4.22;;;;;;;;;;5092179;28;20031;-70
2022/06/10 02:03:21;;;;;;;7.75;4.10;;;;;;;;;;5091926;28;20327;-68
2022/06/10 02:06:03;;;;;;;6.55;4.22;;;;;;;;;;5092214;28;20047;-67
2022/06/10 02:08:37;;;;;;;9.05;4.10;;;;;;;;;;5092038;28;20028;-67
2022/06/10 02:11:10;;;;;;;6.93;4.10;;;;;;;;;;5092176;28;20067;-66
2022/06/10 02:13:44;;;;;;;5.85;3.63;;;;;;;;;;5092022;28;20389;-65
2022/06/10 02:16:14;;;;;;;10.13;4.15;;;;;;;;;;5091954;28;20048;-66
2022/06/10 02:18:47;;;;;;;9.73;4.32;;;;;;;;;;5091994;28;20036;-68
2022/06/10 02:21:40;;;;;;;7.82;4.63;;;;;;;;;;5091837;28;20073;-66
2022/06/10 02:24:14;;;;;;;6.53;4.30;;;;;;;;;;5091892;28;20481;-66
2022/06/10 02:26:41;;;;;;;8.88;4.15;;;;;;;;;;5091707;28;20029;-70
2022/06/10 02:29:17;;;;;;;6.25;4.57;;;;;;;;;;5091593;28;20016;-69
2022/06/10 02:31:48;;;;;;;10.18;4.10;;;;;;;;;;5092186;28;20028;-69
2022/06/10 02:34:14;;;;;;;6.07;3.33;;;;;;;;;;5095884;28;20111;-66
2022/06/10 02:36:49;;;;;;;6.93;3.60;;;;;;;;;;5092046;28;20028;-66
2022/06/10 02:39:43;;;;;;;7.20;3.75;;;;;;;;;;5095901;28;20044;-68
2022/06/10 02:42:39;;;;;;;6.95;3.63;;;;;;;;;;5095866;28;20040;-70
2022/06/10 02:45:27;;;;;;;4.57;3.60;;;;;;;;;;5095774;28;20036;-72
2022/06/10 02:48:11;;;;;;;6.68;3.58;;;;;;;;;;5095740;28;20024;-67
2022/06/10 02:50:38;;;;;;;7.85;4.20;;;;;;;;;;5095633;28;20032;-71
2022/06/10 02:53:06;;;;;;;9.20;3.88;;;;;;;;;;5095382;28;20072;-70
2022/06/10 02:55:32;;;;;;;5.82;3.67;;;;;;;;;;5095530;28;20036;-69
2022/06/10 03:01:16;;;;;;;9.32;4.00;;;;;;;;;;5095155;28;20077;-74
2022/06/10 03:04:00;;;;;;;9.38;4.82;;;;;;;;;;5095385;28;20424;-65
2022/06/10 03:06:59;;;;;;;9.02;3.85;;;;;;;;;;5095309;28;20036;-66
2022/06/10 03:09:59;;;;;;;10.25;5.15;;;;;;;;;;5095050;28;20035;-66
2022/06/10 03:12:50;;;;;;;8.32;4.30;;;;;;;;;;5087473;28;20090;-65
2022/06/10 03:15:47;;;;;;;8.10;4.72;;;;;;;;;;5095150;28;20038;-67
2022/06/10 03:18:34;;;;;;;10.40;5.00;;;;;;;;;;5076466;28;20044;-67
2022/06/10 03:21:18;;;;;;;12.27;5.00;;;;;;;;;;5094611;28;20073;-67
2022/06/10 03:24:02;;;;;;;11.07;4.85;;;;;;;;;;5094083;28;20051;-70
2022/06/10 03:26:55;;;;;;;14.27;4.65;;;;;;;;;;5093581;28;20028;-69
2022/06/10 03:29:43;;;;;;;10.75;5.07;;;;;;;;;;5093312;28;20035;-66
2022/06/10 03:32:17;;;;;;;9.95;5.25;;;;;;;;;;5094491;28;20157;-69
2022/06/10 03:34:48;;;;;;;11.32;6.05;;;;;;;;;;5097090;28;20058;-69
2022/06/10 03:37:19;;;;;;;8.98;5.63;;;;;;;;;;5099245;28;20051;-66
2022/06/10 03:39:53;;;;;;;8.52;5.60;;;;;;;;;;5091668;28;20043;-72
2022/06/10 03:42:21;;;;;;;12.20;5.70;;;;;;;;;;5093770;28;20082;-68
2022/06/10 03:44:50;;;;;;;12.25;6.22;;;;;;;;;;5093726;28;20038;-66
2022/06/10 03:47:20;;;;;;;9.93;5.95;;;;;;;;;;5094203;28;20478;-67
2022/06/10 03:49:57;;;;;;;7.90;5.63;;;;;;;;;;5094027;28;20057;-68
2022/06/10 03:52:30;;;;;;;11.90;5.53;;;;;;;;;;5093522;28;20375;-69
2022/06/10 03:54:56;;;;;;;8.10;5.93;;;;;;;;;;5093906;28;20081;-67
2022/06/10 03:57:22;;;;;;;7.53;5.28;;;;;;;;;;5094025;28;20507;-68
2022/06/10 03:59:48;;;;;;;8.45;5.57;;;;;;;;;;5093563;28;20501;-70
2022/06/10 04:02:14;;;;;;;7.00;4.57;;;;;;;;;;5092700;28;20032;-69
2022/06/10 04:04:42;;;;;;;7.65;5.38;;;;;;;;;;5093781;28;20110;-71
2022/06/10 04:07:11;;;;;;;8.10;6.13;;;;;;;;;;5089646;28;20016;-75
2022/06/10 04:09:37;;;;;;;12.57;5.28;;;;;;;;;;5082083;28;20142;-75
2022/06/10 04:12:03;;;;;;;7.55;5.13;;;;;;;;;;5073212;28;20037;-73
2022/06/10 04:14:29;;;;;;;7.45;5.50;;;;;;;;;;5073394;28;20032;-75
2022/06/10 04:16:55;;;;;;;8.13;5.55;;;;;;;;;;5073722;28;20035;-71
2022/06/10 04:19:21;;;;;;;8.15;5.18;;;;;;;;;;5073478;28;20041;-73
2022/06/10 04:21:47;;;;;;;10.75;4.68;;;;;;;;;;5074882;28;20064;-73
2022/06/10 04:24:13;;;;;;;10.95;4.95;;;;;;;;;;5093410;28;20040;-75
2022/06/10 04:26:39;;;;;;;17.52;6.55;;;;;;;;;;5093470;28;20024;-73
2022/06/10 04:29:05;;;;;;;12.15;6.13;;;;;;;;;;5093186;28;20054;-70
2022/06/10 04:31:31;;;;;;;10.32;5.53;;;;;;;;;;5093364;28;20530;-71
2022/06/10 04:33:56;;;;;;;23.30;8.00;;;;;;;;;;5093247;28;20067;-70
2022/06/10 04:36:22;;;;;;;24.75;7.18;;;;;;;;;;5093271;28;20032;-69
2022/06/10 04:38:48;;;;;;;31.75;7.93;;;;;;;;;;5093061;28;20036;-71
2022/06/10 04:41:15;;;;;;;13.88;6.35;;;;;;;;;;5092696;28;20087;-74
2022/06/10 04:43:41;;;;;;;8.45;5.35;;;;;;;;;;5091446;28;20084;-74
2022/06/10 04:46:09;;;;;;;16.52;6.78;;;;;;;;;;5092944;28;20107;-73
2022/06/10 04:48:35;;;;;;;16.20;5.82;;;;;;;;;;5093013;28;20028;-73
2022/06/10 04:51:02;;;;;;;15.25;6.50;;;;;;;;;;5092818;28;20186;-72
2022/06/10 04:53:27;;;;;;;17.90;7.63;;;;;;;;;;5092556;28;20057;-72
2022/06/10 04:55:54;;;;;;;15.43;6.57;;;;;;;;;;5092153;28;20061;-72
2022/06/10 04:58:20;;;;;;;14.73;5.97;;;;;;;;;;5091058;28;20156;-69
2022/06/10 05:00:50;;;;;;;11.90;5.78;;;;;;;;;;5092070;28;20077;-72
2022/06/10 05:03:17;;;;;;;9.18;5.88;;;;;;;;;;5091597;28;20032;-71
2022/06/10 05:05:43;;;;;;;10.75;5.72;;;;;;;;;;5093364;28;20079;-76
2022/06/10 05:08:13;;;;;;;12.38;6.03;;;;;;;;;;5093529;28;20480;-71
2022/06/10 05:10:39;;;;;;;9.65;6.20;;;;;;;;;;5092977;28;20043;-70
2022/06/10 05:13:05;;;;;;;12.00;7.13;;;;;;;;;;5092562;28;20032;-70
2022/06/10 05:15:31;;;;;;;10.15;7.10;;;;;;;;;;5093142;28;20122;-71
2022/06/10 05:17:58;;;;;;;12.23;6.70;;;;;;;;;;5093539;28;20090;-70
2022/06/10 05:20:31;;;;;;;20.58;8.80;;;;;;;;;;5093181;28;20471;-75
2022/06/10 05:22:57;;;;;;;17.80;8.15;;;;;;;;;;5092958;28;20040;-71
2022/06/10 05:25:23;;;;;;;13.88;7.97;;;;;;;;;;5092842;28;20050;-70
2022/06/10 05:27:48;;;;;;;17.90;8.18;;;;;;;;;;5092793;28;20451;-73
2022/06/10 05:30:21;;;;;;;14.05;7.40;;;;;;;;;;5092865;28;20114;-75
2022/06/10 05:32:47;;;;;;;12.47;7.17;;;;;;;;;;5092404;28;20028;-75
2022/06/10 05:35:13;;;;;;;15.52;7.97;;;;;;;;;;5091961;28;20419;-70
2022/06/10 05:37:39;;;;;;;15.93;6.50;;;;;;;;;;5092439;28;20035;-70
2022/06/10 05:40:06;;;;;;;9.50;7.35;;;;;;;;;;5092157;28;20183;-73
2022/06/10 05:42:32;;;;;;;13.60;7.90;;;;;;;;;;5092336;28;20038;-72
2022/06/10 05:44:57;;;;;;;11.43;7.65;;;;;;;;;;5091634;28;20024;-69
2022/06/10 05:47:27;;;;;;;10.20;7.05;;;;;;;;;;5092836;28;20496;-71
2022/06/10 05:49:55;;;;;;;11.63;7.45;;;;;;;;;;5092076;28;20023;-70
2022/06/10 05:52:24;;;;;;;8.40;6.00;;;;;;;;;;5083521;28;20024;-74
2022/06/10 05:54:52;;;;;;;8.48;6.28;;;;;;;;;;5089670;28;20028;-69
2022/06/10 05:57:18;;;;;;;10.20;6.35;;;;;;;;;;5092826;28;20047;-73
2022/06/10 05:59:47;;;;;;;13.27;7.72;;;;;;;;;;5092543;28;20059;-74
2022/06/10 06:02:14;;;;;;;10.38;7.18;;;;;;;;;;5092450;28;20032;-75
2022/06/10 06:04:41;;;;;;;10.48;7.65;;;;;;;;;;5092711;28;20470;-72
2022/06/10 06:07:07;;;;;;;13.63;7.50;;;;;;;;;;5091355;28;20040;-72
2022/06/10 06:09:33;;;;;;;13.25;7.55;;;;;;;;;;5092348;28;20028;-71
2022/06/10 06:12:00;;;;;;;16.27;7.55;;;;;;;;;;5092352;28;20108;-70
2022/06/10 06:14:28;;;;;;;14.27;7.47;;;;;;;;;;5092468;28;20028;-75
2022/06/10 06:16:57;;;;;;;10.95;6.78;;;;;;;;;;5091976;28;20102;-73
2022/06/10 06:19:23;;;;;;;9.52;6.18;;;;;;;;;;5091930;28;20425;-71
2022/06/10 06:21:49;;;;;;;9.63;6.32;;;;;;;;;;5091800;28;20040;-74
2022/06/10 06:24:15;;;;;;;9.70;5.82;;;;;;;;;;5090937;28;20504;-78
2022/06/10 06:26:41;;;;;;;9.98;6.57;;;;;;;;;;5092194;28;20485;-72
2022/06/10 06:29:07;;;;;;;9.93;6.32;;;;;;;;;;5092008;28;20027;-72
2022/06/10 06:31:34;;;;;;;19.40;8.20;;;;;;;;;;5091251;28;20032;-74
2022/06/10 06:33:59;;;;;;;13.13;8.57;;;;;;;;;;5091204;28;20410;-74
2022/06/10 06:36:27;;;;;;;13.40;7.85;;;;;;;;;;5092019;28;20032;-75
2022/06/10 06:38:54;;;;;;;15.35;8.95;;;;;;;;;;5092209;28;20498;-78
2022/06/10 06:41:21;;;;;;;19.55;8.68;;;;;;;;;;5091848;28;20052;-75
2022/06/10 06:43:47;;;;;;;11.13;7.80;;;;;;;;;;5092086;28;20481;-73
2022/06/10 06:46:16;;;;;;;13.55;8.18;;;;;;;;;;5091808;28;20032;-74
2022/06/10 06:48:43;;;;;;;13.40;9.18;;;;;;;;;;5091846;28;20387;-75
2022/06/10 06:51:09;;;;;;;15.98;9.35;;;;;;;;;;5090507;28;20028;-73
2022/06/10 06:53:35;;;;;;;15.10;9.25;;;;;;;;;;5083886;28;20119;-73
2022/06/10 06:56:03;;;;;;;15.82;10.70;;;;;;;;;;5080189;28;20066;-74
2022/06/10 06:58:29;;;;;;;17.52;11.18;;;;;;;;;;5082488;28;20028;-73
2022/06/10 07:00:56;;;;;;;23.20;10.57;;;;;;;;;;5090238;28;20036;-73
2022/06/10 07:03:21;;;;;;;11.85;8.77;;;;;;;;;;5090763;28;20027;-69
2022/06/10 07:05:48;;;;;;;12.38;8.18;;;;;;;;;;5089353;28;20028;-71
2022/06/10 07:08:14;;;;;;;14.98;8.68;;;;;;;;;;5084569;28;20360;-74
2022/06/10 07:10:40;;;;;;;13.73;7.22;;;;;;;;;;5076728;28;20043;-70
2022/06/10 07:13:06;;;;;;;12.90;9.30;;;;;;;;;;5072910;28;20021;-72
2022/06/10 07:15:33;;;;;;;17.85;8.05;;;;;;;;;;5072884;28;20478;-71
2022/06/10 07:18:00;;;;;;;11.80;7.03;;;;;;;;;;5087558;28;20028;-71
2022/06/10 07:20:31;;;;;;;11.00;6.80;;;;;;;;;;5094098;28;20090;-72
2022/06/10 07:22:59;;;;;;;14.68;7.50;;;;;;;;;;5091081;28;20024;-70
2022/06/10 07:25:25;;;;;;;13.18;7.82;;;;;;;;;;5085789;28;20103;-74
2022/06/10 07:27:55;;;;;;;14.75;6.60;;;;;;;;;;5089024;28;20501;-70
2022/06/10 07:30:25;;;;;;;11.32;7.07;;;;;;;;;;5085575;28;20032;-70
2022/06/10 07:32:51;;;;;;;17.33;8.77;;;;;;;;;;5078284;28;20047;-70
2022/06/10 07:35:18;;;;;;;16.88;9.50;;;;;;;;;;5083467;28;20493;-69
2022/06/10 07:37:45;;;;;;;19.35;10.98;;;;;;;;;;5087276;28;20077;-68
2022/06/10 07:43:12;;;;;;;12.40;9.30;;;;;;;;;;5088843;28;20029;-71
2022/06/10 07:45:38;;;;;;;14.23;9.65;;;;;;;;;;5074052;28;20028;-77
2022/06/10 07:48:06;;;;;;;12.77;8.80;;;;;;;;;;5073869;28;20031;-78
2022/06/10 07:50:33;;;;;;;12.45;8.50;;;;;;;;;;5073742;28;20020;-76
2022/06/10 07:52:59;;;;;;;13.30;8.40;;;;;;;;;;5084970;28;20467;-73
2022/06/10 07:55:25;;;;;;;12.38;8.40;;;;;;;;;;5076294;28;20073;-73
2022/06/10 07:57:52;;;;;;;10.50;6.35;;;;;;;;;;5074151;28;20020;-74
2022/06/10 08:00:18;;;;;;;10.15;6.38;;;;;;;;;;5074835;28;20060;-75
2022/06/10 08:02:44;;;;;;;9.70;6.63;;;;;;;;;;5093992;28;20131;-72
2022/06/10 08:05:13;;;;;;;14.10;8.05;;;;;;;;;;5093899;28;20169;-74
2022/06/10 08:07:39;;;;;;;11.70;7.68;;;;;;;;;;5092422;28;20398;-75
2022/06/10 08:10:08;;;;;;;11.75;8.68;;;;;;;;;;5094252;28;20467;-76
2022/06/10 08:12:34;;;;;;;15.38;10.02;;;;;;;;;;5091870;28;20547;-77
2022/06/10 08:15:00;;;;;;;16.30;10.57;;;;;;;;;;5093477;28;20023;-76
2022/06/10 08:17:26;;;;;;;15.07;10.85;;;;;;;;;;5093950;28;20032;-73
2022/06/10 08:19:52;;;;;;;15.73;10.65;;;;;;;;;;5093788;28;20089;-74
2022/06/10 08:22:35;;;;;;;14.48;10.20;;;;;;;;;;5093707;28;20040;-70
2022/06/10 08:25:05;;;;;;;7.90;5.90;;;;;;;;;;5087951;28;20033;-76
2022/06/10 08:27:32;;;;;;;11.48;7.53;;;;;;;;;;5082676;28;20435;-72
2022/06/10 08:29:58;;;;;;;7.70;6.07;;;;;;;;;;5080435;28;20119;-76
2022/06/10 08:32:24;;;;;;;14.68;7.40;;;;;;;;;;5091717;28;20139;-76
2022/06/10 08:34:50;;;;;;;13.48;9.40;;;;;;;;;;5093391;28;20499;-74
2022/06/10 08:37:16;;;;;;;14.07;8.35;;;;;;;;;;5072854;28;20387;-78
2022/06/10 08:39:42;;;;;;;11.73;8.65;;;;;;;;;;5072334;28;20108;-68
2022/06/10 08:42:21;;;;;;;12.27;8.70;;;;;;;;;;5081932;28;20032;-72
2022/06/10 08:44:55;;;;;;;13.80;9.50;;;;;;;;;;5093506;28;20028;-71
2022/06/10 08:48:03;;;;;;;14.55;10.05;;;;;;;;;;5093582;28;20051;-70
2022/06/10 08:50:46;;;;;;;17.70;11.48;;;;;;;;;;5093150;28;20051;-72
2022/06/10 08:53:18;;;;;;;21.23;13.67;;;;;;;;;;5093055;28;20028;-69
2022/06/10 08:56:03;;;;;;;18.90;11.93;;;;;;;;;;5092577;28;20036;-72
2022/06/10 08:58:39;;;;;;;17.30;11.82;;;;;;;;;;5092888;28;20077;-70
2022/06/10 09:01:12;;;;;;;16.02;11.15;;;;;;;;;;5089618;28;20431;-70
2022/06/10 09:03:43;;;;;;;13.50;9.90;;;;;;;;;;5072392;28;20037;-70
2022/06/10 09:06:26;;;;;;;15.05;9.55;;;;;;;;;;5072631;28;20044;-72
2022/06/10 09:08:56;;;;;;;15.38;9.52;;;;;;;;;;5072544;28;20032;-72
2022/06/10 09:11:26;;;;;;;11.20;8.25;;;;;;;;;;5072664;28;20479;-69
2022/06/10 09:14:18;;;;;;;11.65;7.03;;;;;;;;;;5072287;28;20100;-74
2022/06/10 09:17:12;;;;;;;8.43;6.25;;;;;;;;;;5072280;28;20139;-71
2022/06/10 09:19:48;;;;;;;10.20;6.45;;;;;;;;;;5072080;28;20040;-71
2022/06/10 09:22:32;;;;;;;6.88;3.97;;;;;;;;;;5072357;28;20076;-73
2022/06/10 09:25:10;;;;;;;5.82;4.90;;;;;;;;;;5072504;28;20073;-73
2022/06/10 09:27:47;;;;;;;9.88;5.90;;;;;;;;;;5079736;28;20028;-71
2022/06/10 09:30:17;;;;;;;11.75;5.45;;;;;;;;;;5086316;28;20032;-71
2022/06/10 09:32:55;;;;;;;9.65;4.72;;;;;;;;;;5092627;28;20462;-74
2022/06/10 09:35:39;;;;;;;9.85;6.20;;;;;;;;;;5072337;28;20086;-76
2022/06/10 09:38:13;;;;;;;11.43;6.80;;;;;;;;;;5072182;28;20460;-73
2022/06/10 09:40:52;;;;;;;11.77;7.70;;;;;;;;;;5085538;28;20031;-75
2022/06/10 09:43:47;;;;;;;12.93;7.68;;;;;;;;;;5092212;28;20035;-74
2022/06/10 09:46:47;;;;;;;12.48;8.30;;;;;;;;;;5020422;28;20124;-77
2022/06/10 09:49:34;;;;;;;15.13;8.30;;;;;;;;;;5091994;28;20048;-75
2022/06/10 09:52:28;;;;;;;6.90;4.57;;;;;;;;;;5091922;28;20382;-74
2022/06/10 09:55:14;;;;;;;8.38;5.50;;;;;;;;;;5090731;28;20032;-76
2022/06/10 09:58:05;;;;;;;9.90;5.78;;;;;;;;;;5088844;28;20355;-75
2022/06/10 10:00:50;;;;;;;7.30;5.65;;;;;;;;;;5079917;28;20115;-73
2022/06/10 10:03:34;;;;;;;7.50;5.47;;;;;;;;;;5090635;28;20040;-76
2022/06/10 10:06:16;;;;;;;5.35;3.20;;;;;;;;;;5084999;28;20032;-75
2022/06/10 10:09:05;;;;;;;8.98;3.90;;;;;;;;;;5076452;28;20119;-72
2022/06/10 10:12:08;;;;;;;5.30;2.88;;;;;;;;;;5091394;28;20028;-74
2022/06/10 10:14:52;;;;;;;6.35;3.53;;;;;;;;;;5085169;28;20056;-72
2022/06/10 10:17:49;;;;;;;6.22;3.00;;;;;;;;;;5072574;28;20039;-73
2022/06/10 10:20:24;;;;;;;7.28;3.20;;;;;;;;;;5083784;28;20043;-68
2022/06/10 10:23:17;;;;;;;10.85;2.95;;;;;;;;;;5080186;28;20029;-71
2022/06/10 10:25:45;;;;;;;5.10;3.03;;;;;;;;;;5080914;28;20033;-72
2022/06/10 10:28:28;;;;;;;5.15;3.00;;;;;;;;;;5099224;28;20047;-76
2022/06/10 10:31:21;;;;;;;5.82;2.70;;;;;;;;;;5091863;28;20474;-74
2022/06/10 10:33:47;;;;;;;5.63;3.17;;;;;;;;;;5089838;28;20035;-75
2022/06/10 10:36:32;;;;;;;4.18;2.95;;;;;;;;;;5087085;28;20036;-71
2022/06/10 10:39:18;;;;;;;5.95;3.03;;;;;;;;;;5091729;28;20157;-73
2022/06/10 10:41:48;;;;;;;5.53;2.95;;;;;;;;;;5080746;28;20048;-72
2022/06/10 10:44:34;;;;;;;4.18;2.42;;;;;;;;;;5091011;28;20028;-72
2022/06/10 10:47:09;;;;;;;4.35;2.45;;;;;;;;;;5091624;28;20058;-70
2022/06/10 10:49:39;;;;;;;4.30;2.53;;;;;;;;;;5091593;28;20081;-72
2022/06/10 10:52:36;;;;;;;7.50;3.50;;;;;;;;;;5087065;28;20063;-70
2022/06/10 10:55:12;;;;;;;5.90;3.92;;;;;;;;;;5089991;28;20102;-69
2022/06/10 10:58:07;;;;;;;6.85;3.40;;;;;;;;;;5095480;28;20440;-70
2022/06/10 11:00:43;;;;;;;7.90;3.90;;;;;;;;;;5092929;28;20467;-70
2022/06/10 11:03:51;;;;;;;5.93;3.63;;;;;;;;;;5093050;28;20059;-70
2022/06/10 11:06:36;;;;;;;6.43;3.15;;;;;;;;;;5094823;28;20071;-70
2022/06/10 11:09:23;;;;;;;5.30;3.00;;;;;;;;;;5095668;28;20039;-69
2022/06/10 11:11:51;;;;;;;6.22;3.33;;;;;;;;;;5095185;28;20339;-69
2022/06/10 11:14:40;;;;;;;5.18;3.08;;;;;;;;;;5095203;28;20057;-69
2022/06/10 11:17:11;;;;;;;6.07;3.10;;;;;;;;;;5094093;28;20032;-74
2022/06/10 11:19:37;;;;;;;5.50;3.17;;;;;;;;;;5095104;28;20040;-75
2022/06/10 11:22:15;;;;;;;3.40;2.40;;;;;;;;;;5094809;28;20048;-74
2022/06/10 11:24:44;;;;;;;3.25;2.10;;;;;;;;;;5094852;28;20063;-69
2022/06/10 11:27:29;;;;;;;2.95;1.85;;;;;;;;;;5095012;28;20092;-73
2022/06/10 11:30:04;;;;;;;3.05;1.70;;;;;;;;;;5095031;28;20509;-72
2022/06/10 11:32:39;;;;;;;5.32;2.40;;;;;;;;;;5095031;28;20431;-71
2022/06/10 11:35:23;;;;;;;4.43;2.03;;;;;;;;;;5093905;28;20065;-76
2022/06/10 11:38:06;;;;;;;11.05;2.70;;;;;;;;;;5093288;28;20058;-75
2022/06/10 11:40:40;;;;;;;8.63;2.80;;;;;;;;;;5095037;28;20047;-70
2022/06/10 11:43:39;;;;;;;20.13;3.22;;;;;;;;;;5095032;28;20126;-73
2022/06/10 11:46:28;;;;;;;10.20;2.45;;;;;;;;;;5095300;28;20093;-75
2022/06/10 11:49:16;;;;;;;12.80;3.03;;;;;;;;;;5088565;28;20056;-74
2022/06/10 11:51:55;;;;;;;7.43;2.40;;;;;;;;;;5094603;28;20047;-76
2022/06/10 11:54:46;;;;;;;6.95;2.30;;;;;;;;;;5092725;28;20036;-72
2022/06/10 12:00:47;;;;;;;3.78;1.80;;;;;;;;;;5074159;28;20068;-69
2022/06/10 12:03:35;;;;;;;12.35;6.68;;;;;;;;;;5073905;28;20570;-69
2022/06/10 12:06:26;;;;;;;11.20;3.42;;;;;;;;;;5074066;28;20043;-68
2022/06/10 12:09:04;;;;;;;5.95;2.13;;;;;;;;;;5072555;28;20067;-70
2022/06/10 12:11:44;;;;;;;2.75;1.85;;;;;;;;;;5074014;28;20059;-72
2022/06/10 12:14:23;;;;;;;7.20;2.25;;;;;;;;;;5088194;28;20471;-69
2022/06/10 12:17:02;;;;;;;3.88;2.00;;;;;;;;;;5081826;28;20048;-69
2022/06/10 12:19:56;;;;;;;5.70;2.10;;;;;;;;;;5073710;28;20036;-68
2022/06/10 12:22:22;;;;;;;4.13;1.80;;;;;;;;;;5071249;28;20040;-68
2022/06/10 12:24:50;;;;;;;4.43;1.90;;;;;;;;;;5073516;28;20029;-68
2022/06/10 12:27:25;;;;;;;7.18;2.58;;;;;;;;;;5073640;28;20028;-70
2022/06/10 12:30:02;;;;;;;4.88;2.03;;;;;;;;;;5073439;28;20036;-68
2022/06/10 12:32:56;;;;;;;8.13;2.08;;;;;;;;;;5073548;28;20028;-70
2022/06/10 12:35:28;;;;;;;7.78;2.55;;;;;;;;;;5065843;28;20122;-68
2022/06/10 12:38:03;;;;;;;5.75;1.70;;;;;;;;;;5073473;28;20118;-70
2022/06/10 12:40:36;;;;;;;4.68;1.98;;;;;;;;;;5073516;28;20047;-68
2022/06/10 12:43:02;;;;;;;4.97;1.83;;;;;;;;;;5073229;28;20043;-68
2022/06/10 12:45:44;;;;;;;4.40;1.92;;;;;;;;;;5082043;28;20024;-69
2022/06/10 12:48:46;;;;;;;3.80;1.90;;;;;;;;;;5092529;28;20038;-72
2022/06/10 12:51:12;;;;;;;3.97;1.90;;;;;;;;;;5086348;28;20307;-68
2022/06/10 12:53:59;;;;;;;3.30;1.75;;;;;;;;;;5093170;28;20106;-71
2022/06/10 12:56:31;;;;;;;2.10;1.45;;;;;;;;;;5092920;28;20028;-70
2022/06/10 12:59:07;;;;;;;6.57;1.95;;;;;;;;;;5093129;28;20031;-69
2022/06/10 13:01:32;;;;;;;8.27;2.10;;;;;;;;;;5093295;28;20055;-69
2022/06/10 13:04:10;;;;;;;5.72;2.22;;;;;;;;;;5085873;28;20110;-77
2022/06/10 13:06:45;;;;;;;6.25;1.70;;;;;;;;;;5073054;28;20475;-76
2022/06/10 13:09:10;;;;;;;2.38;1.60;;;;;;;;;;5072566;28;20035;-73
2022/06/10 13:11:44;;;;;;;4.43;1.60;;;;;;;;;;5072179;28;20032;-73
2022/06/10 13:14:20;;;;;;;2.10;1.40;;;;;;;;;;5072541;28;20036;-69
2022/06/10 13:17:20;;;;;;;2.15;1.20;;;;;;;;;;5083725;28;20386;-73
2022/06/10 13:19:56;;;;;;;2.85;1.20;;;;;;;;;;5092843;28;20040;-74
2022/06/10 13:22:22;;;;;;;4.00;1.48;;;;;;;;;;5092852;28;20032;-76
2022/06/10 13:24:54;;;;;;;6.93;1.90;;;;;;;;;;5092769;28;20036;-76
2022/06/10 13:27:24;;;;;;;5.18;1.50;;;;;;;;;;5092724;28;20032;-74
2022/06/10 13:30:14;;;;;;;2.58;1.50;;;;;;;;;;5093033;28;20127;-73
2022/06/10 13:32:42;;;;;;;2.58;1.50;;;;;;;;;;5087704;28;20048;-74
2022/06/10 13:35:19;;;;;;;5.30;1.55;;;;;;;;;;5092932;28;20482;-69
2022/06/10 13:37:45;;;;;;;2.58;1.42;;;;;;;;;;5092854;28;20040;-69
2022/06/10 13:40:24;;;;;;;3.15;1.40;;;;;;;;;;5092573;28;20020;-69
2022/06/10 13:42:54;;;;;;;3.72;1.40;;;;;;;;;;5092503;28;20088;-69
2022/06/10 13:45:31;;;;;;;2.25;0.90;;;;;;;;;;5092508;28;20020;-69
2022/06/10 13:48:06;;;;;;;2.25;0.93;;;;;;;;;;5071100;28;20041;-67
2022/06/10 13:51:40;;;;;;;2.30;1.10;;;;;;;;;;5071917;28;20082;-71
2022/06/10 13:54:00;;;;;;;3.78;1.30;;;;;;;;;;5063186;28;20517;-70
2022/06/10 13:56:29;;;;;;;2.78;1.20;;;;;;;;;;5070644;28;20049;-69
2022/06/10 13:58:56;;;;;;;2.95;1.20;;;;;;;;;;5072516;28;20032;-71
2022/06/10 14:01:26;;;;;;;2.40;1.20;;;;;;;;;;5072547;28;20033;-69
2022/06/10 14:04:01;;;;;;;2.67;1.38;;;;;;;;;;5072462;28;20055;-69
2022/06/10 14:06:30;;;;;;;1.65;1.10;;;;;;;;;;5072569;28;20056;-69
2022/06/10 14:09:01;;;;;;;1.77;1.00;;;;;;;;;;5072612;28;20072;-69
2022/06/10 14:11:34;;;;;;;2.33;1.20;;;;;;;;;;5072415;28;20051;-71
2022/06/10 14:14:02;;;;;;;1.95;1.17;;;;;;;;;;5072085;28;20405;-71
2022/06/10 14:16:31;;;;;;;9.13;1.20;;;;;;;;;;5072021;28;20090;-70
2022/06/10 14:19:00;;;;;;;4.35;1.20;;;;;;;;;;5070633;28;20059;-71
2022/06/10 14:21:29;;;;;;;1.60;1.10;;;;;;;;;;5071734;28;20048;-70
2022/06/10 14:24:13;;;;;;;3.00;1.27;;;;;;;;;;5072171;28;20032;-71
2022/06/10 14:26:40;;;;;;;2.10;1.10;;;;;;;;;;5071914;28;20044;-70
2022/06/10 14:29:15;;;;;;;2.50;1.30;;;;;;;;;;5075088;28;20028;-70
2022/06/10 14:31:45;;;;;;;5.38;1.30;;;;;;;;;;5075837;28;20037;-70
2022/06/10 14:34:25;;;;;;;2.47;1.40;;;;;;;;;;5075686;28;20422;-70
2022/06/10 14:37:24;;;;;;;1.83;1.00;;;;;;;;;;5075521;28;20066;-70
2022/06/10 14:40:04;;;;;;;2.38;1.33;;;;;;;;;;5075862;28;20395;-69
2022/06/10 14:42:34;;;;;;;1.95;1.20;;;;;;;;;;5075274;28;20036;-71
2022/06/10 14:45:02;;;;;;;2.75;1.10;;;;;;;;;;5075996;28;20498;-70
2022/06/10 14:47:30;;;;;;;2.17;1.10;;;;;;;;;;5075406;28;20036;-72
2022/06/10 14:50:05;;;;;;;1.45;1.00;;;;;;;;;;5075230;28;20112;-72
2022/06/10 14:52:48;;;;;;;4.35;0.98;;;;;;;;;;5075751;28;20411;-74
2022/06/10 14:55:22;;;;;;;1.65;0.80;;;;;;;;;;5074347;28;20087;-71
2022/06/10 14:57:53;;;;;;;3.83;1.40;;;;;;;;;;5075919;28;20511;-73
2022/06/10 15:00:24;;;;;;;2.70;1.13;;;;;;;;;;5075687;28;20028;-74
2022/06/10 15:02:50;;;;;;;1.77;1.00;;;;;;;;;;5075518;28;20133;-72
2022/06/10 15:08:02;;;;;;;2.17;1.08;;;;;;;;;;5075082;28;20112;-74
2022/06/10 15:10:27;;;;;;;2.35;0.90;;;;;;;;;;5075017;28;20437;-72
2022/06/10 15:12:53;;;;;;;3.15;1.13;;;;;;;;;;5075339;28;20036;-73
2022/06/10 15:15:19;;;;;;;2.95;1.02;;;;;;;;;;5075533;28;20078;-70
2022/06/10 15:17:50;;;;;;;2.00;1.00;;;;;;;;;;5074437;28;20040;-72
2022/06/10 15:20:17;;;;;;;2.53;1.00;;;;;;;;;;5091296;28;20039;-74
2022/06/10 15:22:51;;;;;;;2.17;1.00;;;;;;;;;;5092855;28;20039;-71
2022/06/10 15:25:28;;;;;;;1.77;0.95;;;;;;;;;;5093302;28;20032;-70
2022/06/10 15:27:54;;;;;;;5.05;1.45;;;;;;;;;;5093489;28;20111;-70
2022/06/10 15:30:24;;;;;;;4.18;1.70;;;;;;;;;;5093112;28;20030;-71
2022/06/10 15:32:50;;;;;;;4.10;1.83;;;;;;;;;;5093336;28;20035;-71